Westville, IN (46391)

3:41 PM CST on February 08, 2016 (GMT -0600)
APRSWXNET | | Change Station
CLOSE
Current Station
Personal Weather Station
Location: Westville, IN
Elevation: 787 ft
Nearby Weather Stations

Elev 787 ft 41.52 °N, 86.95 °W | Updated 40 minutes ago

Overcast
Overcast
31 °F
Feels Like 25 °F
N
6
Wind Variable Wind from West
Gusts 6.0 mph

Today
High -- | Low -- °F
--% Chance of Precip.
Yesterday
High -- | Low -- °F
Precip. -- in
Pressure 29.71 in
Visibility -9999.0 miles
Clouds Overcast 2000 ft
Windchill 25 °F
Dew Point 24 °F
Humidity 76%
Rainfall in
Snow Depth Not available.
6:52 AM 5:11 PM
New Moon, 0% visible
METAR KVPZ 082056Z AUTO 27011KT OVC020 M01/M06 A2968 RMK AO2 SLP059 T10111056 53009 TSNO $
Pressure 29.71 in
Visibility -9999.0 miles
Clouds Overcast 2000 ft
Windchill 25 °F
Dew Point 24 °F
Humidity 76%
Rainfall in
Snow Depth Not available.
6:52 AM 5:11 PM
New Moon, 0% visible
METAR KVPZ 082056Z AUTO 27011KT OVC020 M01/M06 A2968 RMK AO2 SLP059 T10111056 53009 TSNO $

10-Day Weather Forecast

Almanac

Astronomy

Feb. 08, 2016 Rise Set
Actual Time
Civil Twilight
Nautical Twilight
Astronomical Twilight
Moon
Length of Visible Light
Length of Day
Tomorrow will be .
, % of the Moon is Illuminated

Today's Extremes

State Highs State Lows

Community

WunderPhotos

Upload Photos

1,891,512 photos uploaded!

WunderBlog® & News

Nearby

Air Quality

  Air Quality AQ Index Pollutant
Not available.

Snow Depth

Station Depth Elevation

Earthquake Activity

City Distance Mag. Time & Date
Minimum magnitude displayed is 2.5.

Coastal Water Temperatures

Place Temperature

Stations

Nearby Weather Stations

Station Location Temp. Windchill Dew Point Humidity Wind Precip. Elev Updated Type
                   

Watches & Warnings

There are currently no watches in effect.